Time;durP1;ratioP1;P1;durP2;ratioP2;P2;SDS_P1;SDS_P2;PMS_P1;PMS_P2;Temp;Humidity;BMP_temperature;BMP_pressure;BME280_temperature;BME280_humidity;BME280_pressure;Samples;Min_cycle;Max_cycle;Signal;HPM_P1;HPM_P2
2023/07/26 00:01:56;;;;;;;;;;;;;;;29.24;41.42;93953.03;5007426;28;8313;-60
2023/07/26 00:04:23;;;;;;;;;;;;;;;29.23;40.48;93959.84;4996695;28;7597;-60
2023/07/26 00:06:50;;;;;;;;;;;;;;;29.26;40.84;93958.03;5005892;28;7357;-61
2023/07/26 00:09:33;;;;;;;;;;;;;;;29.28;41.12;93961.75;4996802;28;7211;-60
2023/07/26 00:12:04;;;;;;;;;;;;;;;29.26;41.14;93958.03;4989509;28;7462;-61
2023/07/26 00:14:39;;;;;;;;;;;;;;;29.23;41.19;93962.63;5006749;28;6973;-61
2023/07/26 00:17:26;;;;;;;;;;;;;;;29.20;40.87;93966.50;4996607;28;7211;-61
2023/07/26 00:20:19;;;;;;;;;;;;;;;29.24;40.94;93969.66;5017696;28;7196;-61
2023/07/26 00:22:49;;;;;;;;;;;;;;;29.20;41.45;93966.50;5027119;28;8971;-61
2023/07/26 00:25:19;;;;;;;;;;;;;;;29.19;40.45;93967.06;5037913;28;9272;-61
2023/07/26 00:27:47;;;;;;;;;;;;;;;29.16;40.99;93966.13;5041740;28;9170;-60
2023/07/26 00:30:15;;;;;;;;;;;;;;;29.16;40.68;93966.13;5039096;28;7219;-61
2023/07/26 00:32:41;;;;;;;;;;;;;;;29.18;41.24;93985.69;5051972;28;7268;-61
2023/07/26 00:35:07;;;;;;;;;;;;;;;29.20;41.06;93983.13;5042635;28;6994;-62
2023/07/26 00:37:37;;;;;;;;;;;;;;;29.19;40.63;93980.91;5046639;28;9134;-62
2023/07/26 00:40:06;;;;;;;;;;;;;;;29.21;40.61;93990.13;5036017;28;7405;-62
2023/07/26 00:43:19;;;;;;;;;;;;;;;29.23;40.19;93992.38;5036931;28;9112;-62
2023/07/26 00:45:50;;;;;;;;;;;;;;;29.22;40.77;93991.63;5012678;28;7340;-62
2023/07/26 00:48:47;;;;;;;;;;;;;;;29.20;41.13;93994.19;4999894;28;7724;-62
2023/07/26 00:51:15;;;;;;;;;;;;;;;29.19;40.13;93987.16;4996032;28;7009;-62
2023/07/26 00:53:57;;;;;;;;;;;;;;;29.17;41.01;93986.97;4996897;28;9199;-62
2023/07/26 00:56:26;;;;;;;;;;;;;;;29.17;40.75;93994.56;5011495;28;9163;-62
2023/07/26 00:58:53;;;;;;;;;;;;;;;29.16;41.18;93996.56;5010467;28;7243;-62
2023/07/26 01:01:20;;;;;;;;;;;;;;;29.17;40.42;94000.81;5008972;28;7327;-62
2023/07/26 01:03:46;;;;;;;;;;;;;;;29.17;41.17;93997.31;5009340;28;9139;-62
2023/07/26 01:06:50;;;;;;;;;;;;;;;29.19;40.55;94003.78;5011168;28;7333;-62
2023/07/26 01:09:44;;;;;;;;;;;;;;;29.18;40.76;94007.09;4998959;28;8773;-62
2023/07/26 01:12:33;;;;;;;;;;;;;;;29.17;40.94;94003.59;5012064;28;7256;-62
2023/07/26 01:15:16;;;;;;;;;;;;;;;29.17;41.14;94002.88;5011972;28;7213;-63
2023/07/26 01:18:17;;;;;;;;;;;;;;;29.18;41.35;94007.84;4993295;28;6878;-62
2023/07/26 01:20:46;;;;;;;;;;;;;;;29.15;40.95;94014.44;5003295;28;7282;-62
2023/07/26 01:23:13;;;;;;;;;;;;;;;29.18;41.38;94023.72;5030777;28;7008;-62
2023/07/26 01:25:40;;;;;;;;;;;;;;;29.18;40.44;94023.72;5035060;28;6983;-62
2023/07/26 01:28:06;;;;;;;;;;;;;;;29.16;41.07;94026.25;5044899;28;8763;-62
2023/07/26 01:31:09;;;;;;;;;;;;;;;29.15;40.56;94027.53;5035316;28;9565;-62
2023/07/26 01:33:59;;;;;;;;;;;;;;;29.12;41.35;94021.09;5033003;28;9256;-62
2023/07/26 01:36:51;;;;;;;;;;;;;;;29.13;40.51;94021.81;5021950;28;9374;-62
2023/07/26 01:39:28;;;;;;;;;;;;;;;29.11;40.80;94025.13;5048508;28;9149;-62
2023/07/26 01:42:08;;;;;;;;;;;;;;;29.10;41.08;94029.91;5053911;28;7278;-62
2023/07/26 01:44:38;;;;;;;;;;;;;;;29.12;41.11;94036.94;5029168;28;7214;-63
2023/07/26 01:47:12;;;;;;;;;;;;;;;29.09;40.77;94041.53;5043208;28;7656;-63
2023/07/26 01:49:45;;;;;;;;;;;;;;;29.08;40.71;94038.03;5051289;28;7231;-63
2023/07/26 01:52:15;;;;;;;;;;;;;;;29.09;41.08;94036.75;5058771;28;9097;-63
2023/07/26 01:54:42;;;;;;;;;;;;;;;29.08;41.02;94037.28;5027932;28;6986;-63
2023/07/26 01:57:09;;;;;;;;;;;;;;;29.09;40.44;94047.09;5068159;28;7148;-63
2023/07/26 01:59:45;;;;;;;;;;;;;;;29.08;40.82;94046.34;5038996;28;6992;-63
2023/07/26 02:02:18;;;;;;;;;;;;;;;29.07;40.31;94044.88;5038517;28;7248;-64
2023/07/26 02:05:24;;;;;;;;;;;;;;;29.08;40.16;94056.66;5044617;28;7274;-63
2023/07/26 02:07:58;;;;;;;;;;;;;;;29.04;40.24;94051.47;5004363;28;7156;-63
2023/07/26 02:10:42;;;;;;;;;;;;;;;29.05;41.20;94055.75;4994381;28;9163;-63
2023/07/26 02:13:33;;;;;;;;;;;;;;;29.06;40.33;94056.47;4996794;28;7209;-62
2023/07/26 02:16:08;;;;;;;;;;;;;;;29.05;41.24;94061.28;4984783;28;7353;-63
2023/07/26 02:18:49;;;;;;;;;;;;;;;29.05;40.82;94063.31;4996311;28;7053;-63
2023/07/26 02:21:40;;;;;;;;;;;;;;;29.03;40.71;94069.38;4997522;28;8739;-63
2023/07/26 02:24:21;;;;;;;;;;;;;;;29.02;40.73;94067.88;5002112;28;7238;-62
2023/07/26 02:26:49;;;;;;;;;;;;;;;29.00;40.96;94075.25;4994472;28;9074;-63
2023/07/26 02:29:19;;;;;;;;;;;;;;;29.01;41.04;94071.22;4994738;28;8845;-63
2023/07/26 02:31:56;;;;;;;;;;;;;;;29.00;41.04;94070.47;5011150;28;7085;-63
2023/07/26 02:34:58;;;;;;;;;;;;;;;28.99;40.89;94071.72;5011539;28;9063;-63
2023/07/26 02:37:38;;;;;;;;;;;;;;;28.98;41.18;94067.50;5010111;28;7378;-63
2023/07/26 02:40:07;;;;;;;;;;;;;;;28.99;41.17;94079.31;5043822;28;7327;-63
2023/07/26 02:42:33;;;;;;;;;;;;;;;29.00;40.87;94073.22;5034747;28;7351;-63
2023/07/26 02:45:00;;;;;;;;;;;;;;;28.99;40.79;94068.97;5067943;28;9572;-64
2023/07/26 02:47:32;;;;;;;;;;;;;;;29.00;41.31;94078.00;5032460;28;9208;-64
2023/07/26 02:50:04;;;;;;;;;;;;;;;28.99;41.00;94085.56;5052542;28;7405;-63
2023/07/26 02:53:17;;;;;;;;;;;;;;;28.98;40.57;94084.09;5029819;28;7247;-63
2023/07/26 02:55:51;;;;;;;;;;;;;;;28.97;41.10;94085.38;5009965;28;9175;-62
2023/07/26 02:58:17;;;;;;;;;;;;;;;28.94;40.57;94083.72;5010448;28;7329;-61
2023/07/26 03:00:44;;;;;;;;;;;;;;;28.97;40.91;94087.41;4994661;28;9147;-62
2023/07/26 03:03:19;;;;;;;;;;;;;;;28.95;41.43;94085.19;5002982;28;9373;-62
2023/07/26 03:05:46;;;;;;;;;;;;;;;28.96;41.11;94094.97;5003235;28;7317;-62
2023/07/26 03:08:45;;;;;;;;;;;;;;;28.97;40.97;94092.97;4985908;28;7322;-63
2023/07/26 03:11:29;;;;;;;;;;;;;;;28.96;40.46;94085.91;5003632;28;6912;-62
2023/07/26 03:14:14;;;;;;;;;;;;;;;28.94;40.73;94088.50;4996140;28;7299;-62
2023/07/26 03:16:41;;;;;;;;;;;;;;;28.96;40.46;94097.00;4994922;28;7283;-61
2023/07/26 03:19:11;;;;;;;;;;;;;;;28.96;41.54;94086.66;5015371;28;9064;-62
2023/07/26 03:21:49;;;;;;;;;;;;;;;28.96;40.36;94099.78;5011314;28;8925;-63
2023/07/26 03:24:30;;;;;;;;;;;;;;;28.95;40.86;94090.72;4996457;28;8944;-62
2023/07/26 03:27:22;;;;;;;;;;;;;;;28.96;40.68;94097.00;5010494;28;9320;-62
2023/07/26 03:29:48;;;;;;;;;;;;;;;28.93;41.00;94092.53;5010372;28;7193;-62
2023/07/26 03:32:33;;;;;;;;;;;;;;;28.94;41.04;94100.31;5018492;28;7175;-62
2023/07/26 03:35:17;;;;;;;;;;;;;;;28.92;41.23;94102.88;5035111;28;7284;-62
2023/07/26 03:37:44;;;;;;;;;;;;;;;28.90;41.02;94099.91;5051273;28;7061;-62
2023/07/26 03:40:42;;;;;;;;;;;;;;;28.91;40.59;94104.16;5050897;28;7064;-62
2023/07/26 03:43:08;;;;;;;;;;;;;;;28.92;41.28;94104.91;5024513;28;7258;-62
2023/07/26 03:45:52;;;;;;;;;;;;;;;28.91;40.51;94106.94;5054602;28;6985;-62
2023/07/26 03:48:41;;;;;;;;;;;;;;;28.88;40.50;94102.44;5071000;28;7287;-62
2023/07/26 03:51:14;;;;;;;;;;;;;;;28.91;41.38;94098.63;5019887;28;9056;-61
2023/07/26 03:53:49;;;;;;;;;;;;;;;28.92;40.92;94104.91;5018411;28;8993;-62
2023/07/26 03:56:29;;;;;;;;;;;;;;;28.90;41.04;94104.69;5052560;28;9078;-63
2023/07/26 03:58:57;;;;;;;;;;;;;;;28.88;41.27;94099.69;5037245;28;7184;-62
2023/07/26 04:01:35;;;;;;;;;;;;;;;28.89;40.95;94105.97;5037951;28;8887;-62
2023/07/26 04:04:18;;;;;;;;;;;;;;;28.88;41.23;94102.44;5050117;28;7177;-64
2023/07/26 04:06:53;;;;;;;;;;;;;;;28.87;40.72;94103.75;5035017;28;9146;-63
2023/07/26 04:09:36;;;;;;;;;;;;;;;28.88;40.54;94107.28;5036540;28;7272;-63
2023/07/26 04:12:02;;;;;;;;;;;;;;;28.90;41.00;94113.75;5048796;28;7246;-63
2023/07/26 04:14:35;;;;;;;;;;;;;;;28.89;41.32;94103.19;5033783;28;7281;-63
2023/07/26 04:17:37;;;;;;;;;;;;;;;28.86;41.41;94107.78;5025707;28;7119;-63
2023/07/26 04:20:18;;;;;;;;;;;;;;;28.84;41.36;94102.06;4968009;28;7291;-63
2023/07/26 04:22:55;;;;;;;;;;;;;;;28.87;40.75;94108.53;4985666;28;7077;-63
2023/07/26 04:25:34;;;;;;;;;;;;;;;28.88;40.88;94113.53;4981422;28;7239;-62
2023/07/26 04:28:24;;;;;;;;;;;;;;;28.86;41.53;94107.78;4964583;28;7221;-63
2023/07/26 04:30:52;;;;;;;;;;;;;;;28.86;40.40;94116.09;4983785;28;7530;-63
2023/07/26 04:33:28;;;;;;;;;;;;;;;28.82;40.97;94118.47;4975445;28;7202;-63
2023/07/26 04:35:57;;;;;;;;;;;;;;;28.82;41.08;94121.22;4976405;28;6996;-63
2023/07/26 04:38:32;;;;;;;;;;;;;;;28.82;41.16;94123.25;4974963;28;7441;-63
2023/07/26 04:41:03;;;;;;;;;;;;;;;28.79;41.61;94122.31;4992942;28;6976;-63
2023/07/26 04:43:33;;;;;;;;;;;;;;;28.78;40.83;94125.59;4989077;28;7230;-63
2023/07/26 04:45:58;;;;;;;;;;;;;;;28.80;41.12;94118.25;4973761;28;7421;-63
2023/07/26 04:49:13;;;;;;;;;;;;;;;28.83;41.02;94114.41;4985882;28;7757;-63
2023/07/26 04:51:39;;;;;;;;;;;;;;;28.85;41.20;94111.09;4987258;28;6985;-63
2023/07/26 04:54:25;;;;;;;;;;;;;;;28.81;41.10;94105.91;5016636;28;7787;-63
2023/07/26 04:56:50;;;;;;;;;;;;;;;28.78;40.76;94112.50;5066499;28;7212;-63
2023/07/26 04:59:20;;;;;;;;;;;;;;;28.81;41.04;94119.00;5050857;28;9162;-63
2023/07/26 05:01:49;;;;;;;;;;;;;;;28.79;40.84;94116.78;5051559;28;8826;-63
2023/07/26 05:04:44;;;;;;;;;;;;;;;28.82;41.15;94120.47;5035771;28;7121;-62
2023/07/26 05:07:10;;;;;;;;;;;;;;;28.82;41.35;94114.94;4975558;28;7401;-63
2023/07/26 05:09:46;;;;;;;;;;;;;;;28.83;41.30;94116.44;4956522;28;9081;-63
2023/07/26 05:12:12;;;;;;;;;;;;;;;28.80;41.50;94112.72;4964984;28;9789;-63
2023/07/26 05:14:59;;;;;;;;;;;;;;;28.80;40.75;94114.75;4957617;28;7321;-61
2023/07/26 05:17:38;;;;;;;;;;;;;;;28.82;41.11;94120.47;4973442;28;7003;-61
2023/07/26 05:20:05;;;;;;;;;;;;;;;28.83;41.04;94119.97;4983833;28;8910;-61
2023/07/26 05:22:55;;;;;;;;;;;;;;;28.83;40.66;94127.50;4973602;28;8762;-61
2023/07/26 05:25:41;;;;;;;;;;;;;;;28.81;41.37;94125.28;4954625;28;7494;-61
2023/07/26 05:28:07;;;;;;;;;;;;;;;28.81;41.38;94130.81;4981283;28;9487;-61
2023/07/26 05:30:42;;;;;;;;;;;;;;;28.79;41.17;94130.63;4958116;28;7541;-60
2023/07/26 05:33:09;;;;;;;;;;;;;;;28.80;40.77;94137.63;4968774;28;7210;-61
2023/07/26 05:35:55;;;;;;;;;;;;;;;28.81;40.59;94128.06;4953051;28;9042;-61
2023/07/26 05:38:21;;;;;;;;;;;;;;;28.80;41.62;94132.09;4972951;28;7283;-61
2023/07/26 05:41:34;;;;;;;;;;;;;;;28.78;41.01;94140.19;4973158;28;9118;-61
2023/07/26 05:44:15;;;;;;;;;;;;;;;28.78;41.27;94142.97;4963673;28;8222;-61
2023/07/26 05:46:55;;;;;;;;;;;;;;;28.81;41.27;94138.38;4948491;28;9126;-60
2023/07/26 05:49:22;;;;;;;;;;;;;;;28.76;41.02;94144.78;4952734;28;9123;-61
2023/07/26 05:51:48;;;;;;;;;;;;;;;28.79;40.40;94150.00;4959904;28;7494;-61
2023/07/26 05:54:28;;;;;;;;;;;;;;;28.80;40.55;94156.25;4984662;28;7058;-61
2023/07/26 05:56:55;;;;;;;;;;;;;;;28.76;40.43;94153.09;4970227;28;7098;-61
2023/07/26 05:59:22;;;;;;;;;;;;;;;28.74;41.35;94153.63;4968829;28;7161;-61
2023/07/26 06:02:14;;;;;;;;;;;;;;;28.78;40.92;94167.13;4961369;28;9211;-61
2023/07/26 06:04:59;;;;;;;;;;;;;;;28.76;41.00;94169.69;4966118;28;9068;-61
2023/07/26 06:07:45;;;;;;;;;;;;;;;28.75;41.32;94168.22;4969327;28;7208;-61
2023/07/26 06:10:10;;;;;;;;;;;;;;;28.75;41.11;94171.00;4945397;28;8442;-61
2023/07/26 06:12:37;;;;;;;;;;;;;;;28.76;41.27;94175.22;4964425;28;7465;-60
2023/07/26 06:15:06;;;;;;;;;;;;;;;28.75;41.08;94174.47;4992794;28;6951;-61
2023/07/26 06:17:33;;;;;;;;;;;;;;;28.75;41.47;94176.53;4973041;28;9010;-61
2023/07/26 06:20:03;;;;;;;;;;;;;;;28.73;41.21;94171.50;5008389;28;7001;-61
2023/07/26 06:22:30;;;;;;;;;;;;;;;28.74;40.65;94178.53;5052114;28;9428;-61
2023/07/26 06:24:56;;;;;;;;;;;;;;;28.74;41.16;94183.31;5033944;28;7328;-63
2023/07/26 06:27:25;;;;;;;;;;;;;;;28.74;40.77;94175.78;5042777;28;9410;-62
2023/07/26 06:29:51;;;;;;;;;;;;;;;28.74;41.00;94173.00;5050846;28;7138;-62
2023/07/26 06:32:23;;;;;;;;;;;;;;;28.74;40.99;94178.53;5033364;28;6981;-62
2023/07/26 06:34:57;;;;;;;;;;;;;;;28.74;41.07;94184.06;5038511;28;7192;-62
2023/07/26 06:37:27;;;;;;;;;;;;;;;28.74;40.52;94178.53;5048447;28;7173;-62
2023/07/26 06:39:56;;;;;;;;;;;;;;;28.72;40.90;94185.88;5023782;28;7049;-62
2023/07/26 06:42:22;;;;;;;;;;;;;;;28.73;40.67;94181.84;5032772;28;7233;-62
2023/07/26 06:44:48;;;;;;;;;;;;;;;28.72;41.21;94192.19;5065659;28;9036;-62
2023/07/26 06:47:17;;;;;;;;;;;;;;;28.74;40.80;94192.38;5045683;28;7289;-62
2023/07/26 06:49:52;;;;;;;;;;;;;;;28.71;40.95;94198.25;5047040;28;8836;-62
2023/07/26 06:52:29;;;;;;;;;;;;;;;28.72;40.67;94205.25;5042084;28;7426;-62
2023/07/26 06:54:55;;;;;;;;;;;;;;;28.70;41.18;94203.03;5052678;28;7210;-62
2023/07/26 06:57:41;;;;;;;;;;;;;;;28.70;41.32;94205.81;5038629;28;9080;-62
2023/07/26 07:00:12;;;;;;;;;;;;;;;28.68;41.11;94213.16;5040637;28;7243;-62
2023/07/26 07:02:39;;;;;;;;;;;;;;;28.69;41.31;94222.94;5030734;28;7404;-62
2023/07/26 07:05:08;;;;;;;;;;;;;;;28.70;40.90;94225.19;5063562;28;7432;-62
2023/07/26 07:07:58;;;;;;;;;;;;;;;28.70;41.28;94216.88;5067896;28;7246;-62
2023/07/26 07:10:44;;;;;;;;;;;;;;;28.70;40.51;94227.94;5042002;28;7239;-62
2023/07/26 07:13:12;;;;;;;;;;;;;;;28.69;40.34;94234.75;5024889;28;9444;-62
2023/07/26 07:15:43;;;;;;;;;;;;;;;28.70;41.22;94227.94;5055337;28;9154;-62
2023/07/26 07:18:26;;;;;;;;;;;;;;;28.71;40.98;94228.69;5051961;28;7220;-62
2023/07/26 07:21:08;;;;;;;;;;;;;;;28.72;41.29;94232.94;5046622;28;7021;-62
2023/07/26 07:23:40;;;;;;;;;;;;;;;28.69;41.08;94223.69;5028868;28;7231;-62
2023/07/26 07:26:09;;;;;;;;;;;;;;;28.70;41.18;94219.66;5051814;28;7159;-62
2023/07/26 07:28:54;;;;;;;;;;;;;;;28.70;40.75;94224.44;5029121;28;7232;-62
2023/07/26 07:31:21;;;;;;;;;;;;;;;28.68;41.15;94221.47;5048198;28;8753;-62
2023/07/26 07:33:53;;;;;;;;;;;;;;;28.65;40.44;94228.81;5056103;28;8900;-62
2023/07/26 07:36:20;;;;;;;;;;;;;;;28.68;41.41;94227.75;5037612;28;9059;-63
2023/07/26 07:38:51;;;;;;;;;;;;;;;28.70;41.27;94219.66;5054793;28;8962;-63
2023/07/26 07:41:25;;;;;;;;;;;;;;;28.69;41.28;94228.47;5048437;28;9027;-62
2023/07/26 07:43:59;;;;;;;;;;;;;;;28.67;40.68;94226.25;5021768;28;9102;-63
2023/07/26 07:46:28;;;;;;;;;;;;;;;28.66;41.07;94229.56;5037962;28;7222;-63
2023/07/26 07:49:21;;;;;;;;;;;;;;;28.65;41.47;94228.81;5053812;28;7264;-63
2023/07/26 07:52:16;;;;;;;;;;;;;;;28.66;40.79;94226.78;4997782;28;7204;-62
2023/07/26 07:54:43;;;;;;;;;;;;;;;28.63;40.75;94225.06;4970956;28;9115;-63
2023/07/26 07:57:21;;;;;;;;;;;;;;;28.63;41.38;94230.63;4977188;28;7218;-63
2023/07/26 07:59:47;;;;;;;;;;;;;;;28.61;40.83;94225.63;4969236;28;7054;-63
2023/07/26 08:02:13;;;;;;;;;;;;;;;28.60;41.27;94232.41;4967153;28;6986;-63
2023/07/26 08:04:51;;;;;;;;;;;;;;;28.61;41.45;94233.94;4993763;28;7274;-63
2023/07/26 08:07:33;;;;;;;;;;;;;;;28.58;41.30;94234.97;4974323;28;8788;-63
2023/07/26 08:10:01;;;;;;;;;;;;;;;28.59;41.48;94242.03;4993756;28;7409;-63
2023/07/26 08:12:28;;;;;;;;;;;;;;;28.58;41.11;94250.88;4993104;28;7198;-63
2023/07/26 08:14:55;;;;;;;;;;;;;;;28.57;41.50;94250.13;4977134;28;7129;-63
2023/07/26 08:17:35;;;;;;;;;;;;;;;28.58;41.68;94251.59;4966097;28;7215;-63
2023/07/26 08:20:01;;;;;;;;;;;;;;;28.58;41.20;94250.88;4993627;28;8812;-63
2023/07/26 08:22:47;;;;;;;;;;;;;;;28.58;41.45;94251.59;4987239;28;7333;-63
2023/07/26 08:25:51;;;;;;;;;;;;;;;28.58;41.25;94246.06;4984761;28;7136;-62
2023/07/26 08:28:37;;;;;;;;;;;;;;;28.57;41.04;94246.56;4916680;29;7967;-63
2023/07/26 08:31:11;;;;;;;;;;;;;;;28.56;41.45;94240.28;4950623;28;9503;-63
2023/07/26 08:33:37;;;;;;;;;;;;;;;28.55;41.65;94238.81;4945672;28;7242;-63
2023/07/26 08:36:34;;;;;;;;;;;;;;;28.58;41.17;94245.34;4939272;28;7458;-63
2023/07/26 08:39:00;;;;;;;;;;;;;;;28.58;41.20;94245.34;4892560;29;7180;-63
2023/07/26 08:41:51;;;;;;;;;;;;;;;28.58;41.68;94250.88;4880682;29;7270;-63
2023/07/26 08:44:30;;;;;;;;;;;;;;;28.58;41.59;94248.09;4897510;29;7329;-61
2023/07/26 08:47:35;;;;;;;;;;;;;;;28.60;41.15;94251.78;4891343;29;7602;-60
2023/07/26 08:50:19;;;;;;;;;;;;;;;28.62;41.12;94248.50;4850430;29;7023;-61
2023/07/26 08:52:59;;;;;;;;;;;;;;;28.62;41.12;94251.28;4844256;29;7248;-61
2023/07/26 08:56:00;;;;;;;;;;;;;;;28.63;41.34;94252.75;4859477;29;7217;-61
2023/07/26 08:58:45;;;;;;;;;;;;;;;28.61;41.05;94250.53;4822744;29;9023;-61
2023/07/26 09:01:11;;;;;;;;;;;;;;;28.59;40.70;94247.56;4824869;29;7196;-61
2023/07/26 09:03:41;;;;;;;;;;;;;;;28.60;41.52;94243.50;4815393;29;9401;-60
2023/07/26 09:06:27;;;;;;;;;;;;;;;28.60;40.89;94243.50;4809211;29;6927;-61
2023/07/26 09:09:17;;;;;;;;;;;;;;;28.60;40.95;94249.03;4807663;29;7392;-61
2023/07/26 09:12:01;;;;;;;;;;;;;;;28.60;41.20;94262.88;4814876;29;7342;-61
2023/07/26 09:14:31;;;;;;;;;;;;;;;28.58;41.16;94257.13;4817377;29;7271;-61
2023/07/26 09:17:15;;;;;;;;;;;;;;;28.63;40.79;94255.53;4863678;29;7190;-61
2023/07/26 09:20:19;;;;;;;;;;;;;;;28.62;40.73;94254.03;4899949;29;9183;-61
2023/07/26 09:23:05;;;;;;;;;;;;;;;28.62;41.10;94257.56;4878600;29;7352;-61
2023/07/26 09:25:32;;;;;;;;;;;;;;;28.63;41.58;94250.75;4968410;28;7307;-61
2023/07/26 09:28:28;;;;;;;;;;;;;;;28.61;41.09;94250.53;4958631;28;7281;-61
2023/07/26 09:30:58;;;;;;;;;;;;;;;28.61;41.48;94244.25;4969922;28;7258;-61
2023/07/26 09:33:27;;;;;;;;;;;;;;;28.60;40.73;94240.72;5046457;28;7343;-60
2023/07/26 09:35:54;;;;;;;;;;;;;;;28.62;41.04;94238.19;5045221;28;7282;-61
2023/07/26 09:38:27;;;;;;;;;;;;;;;28.60;41.17;94237.97;5066960;28;7324;-61
2023/07/26 09:40:53;;;;;;;;;;;;;;;28.61;41.49;94235.94;5034700;28;7008;-61
2023/07/26 09:43:31;;;;;;;;;;;;;;;28.61;40.80;94233.19;5041546;28;7133;-61
2023/07/26 09:46:04;;;;;;;;;;;;;;;28.59;41.50;94236.47;5033408;28;7028;-61
2023/07/26 09:48:31;;;;;;;;;;;;;;;28.58;41.19;94246.06;5031942;28;7254;-61
2023/07/26 09:51:07;;;;;;;;;;;;;;;28.58;40.95;94240.50;5031263;28;9445;-61
2023/07/26 09:53:45;;;;;;;;;;;;;;;28.60;40.92;94246.25;5017025;28;7068;-61
2023/07/26 09:56:11;;;;;;;;;;;;;;;28.60;41.49;94251.78;5040767;28;7180;-63
2023/07/26 09:58:42;;;;;;;;;;;;;;;28.64;41.33;94255.00;5019173;28;7713;-64
2023/07/26 10:01:14;;;;;;;;;;;;;;;28.66;41.36;94257.97;5047729;28;7061;-64
2023/07/26 10:03:46;;;;;;;;;;;;;;;28.67;41.27;94258.69;5043821;28;7507;-63
2023/07/26 10:06:20;;;;;;;;;;;;;;;28.67;40.71;94253.16;5037555;28;7365;-64
2023/07/26 10:09:03;;;;;;;;;;;;;;;28.70;41.00;94260.41;5035368;28;7746;-64
2023/07/26 10:11:40;;;;;;;;;;;;;;;28.70;41.14;94249.34;5056810;28;9131;-64
2023/07/26 10:14:30;;;;;;;;;;;;;;;28.71;40.74;94231.47;5033029;28;7199;-63
2023/07/26 10:17:21;;;;;;;;;;;;;;;28.70;40.98;94241.03;5046739;28;9419;-63
2023/07/26 10:20:16;;;;;;;;;;;;;;;28.70;41.05;94236.25;5035061;28;7261;-63
2023/07/26 10:23:20;;;;;;;;;;;;;;;28.71;41.02;94240.50;5042628;28;7594;-64
2023/07/26 10:26:15;;;;;;;;;;;;;;;28.74;40.75;94242.22;5010459;28;7151;-63
2023/07/26 10:28:43;;;;;;;;;;;;;;;28.77;40.47;94246.69;4994586;28;9443;-63
2023/07/26 10:31:13;;;;;;;;;;;;;;;28.78;41.04;94245.38;4996367;28;7231;-65
2023/07/26 10:34:03;;;;;;;;;;;;;;;28.80;40.58;94233.78;5013813;28;7141;-64
2023/07/26 10:36:39;;;;;;;;;;;;;;;28.80;40.57;94234.53;4994437;28;7159;-63
2023/07/26 10:39:14;;;;;;;;;;;;;;;28.76;41.19;94234.09;4991866;28;7064;-63
2023/07/26 10:45:42;;;;;;;;;;;;;;;28.76;40.94;94236.13;4952780;29;7485;-63
2023/07/26 10:48:56;;;;;;;;;;;;;;;28.75;40.26;94240.19;4969886;28;7328;-63
2023/07/26 10:52:00;;;;;;;;;;;;;;;28.77;40.85;94249.44;4965371;28;7214;-63
2023/07/26 10:54:51;;;;;;;;;;;;;;;28.74;40.89;94263.59;4941904;28;9024;-64
2023/07/26 10:57:28;;;;;;;;;;;;;;;28.74;40.90;94264.34;4953279;28;7196;-64
2023/07/26 11:00:17;;;;;;;;;;;;;;;28.72;41.01;94277.97;4964995;28;9049;-63
2023/07/26 11:03:02;;;;;;;;;;;;;;;28.73;41.34;94273.91;4988826;28;7124;-63
2023/07/26 11:05:55;;;;;;;;;;;;;;;28.71;40.72;94273.72;4994712;28;7847;-55
2023/07/26 11:08:43;;;;;;;;;;;;;;;28.71;41.44;94279.25;4989141;28;7205;-55
2023/07/26 11:11:09;;;;;;;;;;;;;;;28.69;40.53;94278.28;4973671;28;7270;-55
2023/07/26 11:13:35;;;;;;;;;;;;;;;28.69;40.74;94265.19;4987701;28;7459;-55
2023/07/26 11:16:12;;;;;;;;;;;;;;;28.70;41.08;94246.56;4972875;28;7121;-55
2023/07/26 11:18:48;;;;;;;;;;;;;;;28.72;40.58;94249.56;4980791;28;6990;-55
2023/07/26 11:21:47;;;;;;;;;;;;;;;28.75;40.96;94251.25;4994872;28;9093;-55
2023/07/26 11:24:40;;;;;;;;;;;;;;;28.74;41.18;94247.75;5038417;28;7555;-55
2023/07/26 11:27:36;;;;;;;;;;;;;;;28.76;40.41;94245.19;4977901;28;9428;-55
2023/07/26 11:30:03;;;;;;;;;;;;;;;28.74;40.81;94247.75;4936351;29;8469;-55
2023/07/26 11:32:49;;;;;;;;;;;;;;;28.75;40.40;94249.22;4937764;28;8895;-55
2023/07/26 11:35:20;;;;;;;;;;;;;;;28.72;41.24;94244.75;4930334;28;7218;-55
2023/07/26 11:38:03;;;;;;;;;;;;;;;28.73;41.15;94251.78;4940609;28;9263;-55
2023/07/26 11:40:43;;;;;;;;;;;;;;;28.75;40.84;94254.03;4938101;28;7537;-55
2023/07/26 11:43:26;;;;;;;;;;;;;;;28.76;40.80;94261.03;4932411;28;7013;-55
2023/07/26 11:45:54;;;;;;;;;;;;;;;28.69;41.15;94254.13;4926820;28;9165;-55
2023/07/26 11:48:22;;;;;;;;;;;;;;;28.68;40.90;94283.09;4936830;28;7311;-55
2023/07/26 11:50:54;;;;;;;;;;;;;;;28.69;41.23;94281.06;4921146;29;9596;-55
2023/07/26 11:53:29;;;;;;;;;;;;;;;28.69;41.14;94275.53;4924915;29;7191;-55
2023/07/26 11:56:01;;;;;;;;;;;;;;;28.69;40.43;94287.34;4924330;29;7228;-55
2023/07/26 11:58:35;;;;;;;;;;;;;;;28.70;41.34;94280.53;4930121;29;7298;-55
2023/07/26 12:01:20;;;;;;;;;;;;;;;28.70;41.22;94275.00;4935453;28;7084;-55
2023/07/26 12:03:46;;;;;;;;;;;;;;;28.76;41.16;94278.41;4961726;28;7301;-55
2023/07/26 12:06:19;;;;;;;;;;;;;;;28.77;40.70;94268.06;5030907;28;7247;-55
2023/07/26 12:09:16;;;;;;;;;;;;;;;28.75;40.92;94265.09;5035107;28;7261;-55
2023/07/26 12:12:08;;;;;;;;;;;;;;;28.73;40.57;94268.38;5046390;28;7081;-56
2023/07/26 12:14:46;;;;;;;;;;;;;;;28.72;40.81;94255.09;5046256;28;8669;-63
2023/07/26 12:17:13;;;;;;;;;;;;;;;28.75;40.84;94259.56;5053971;28;6996;-63
2023/07/26 12:19:44;;;;;;;;;;;;;;;28.79;41.01;94265.50;5053882;28;7033;-62
2023/07/26 12:22:28;;;;;;;;;;;;;;;28.74;40.46;94272.66;5054899;28;7054;-63
2023/07/26 12:25:02;;;;;;;;;;;;;;;28.71;40.99;94273.72;5068874;28;9472;-63
2023/07/26 12:28:00;;;;;;;;;;;;;;;28.71;41.24;94270.22;5034175;28;7274;-63
2023/07/26 12:30:27;;;;;;;;;;;;;;;28.71;40.53;94276.47;4996559;28;7089;-63
2023/07/26 12:33:19;;;;;;;;;;;;;;;28.72;41.25;94289.06;5018161;28;9142;-63
2023/07/26 12:35:52;;;;;;;;;;;;;;;28.74;40.36;94294.78;4985416;28;7082;-63
2023/07/26 12:38:21;;;;;;;;;;;;;;;28.75;40.51;94295.56;4985405;28;7274;-63
2023/07/26 12:40:56;;;;;;;;;;;;;;;28.77;40.42;94307.59;4999259;28;7000;-62
2023/07/26 12:43:24;;;;;;;;;;;;;;;28.76;41.00;94295.00;4999684;28;8228;-62
2023/07/26 12:45:54;;;;;;;;;;;;;;;28.76;40.41;94299.78;5026748;28;7494;-63
2023/07/26 12:48:20;;;;;;;;;;;;;;;28.73;40.93;94306.41;5024869;28;7328;-63
2023/07/26 12:50:46;;;;;;;;;;;;;;;28.76;40.81;94313.63;4994430;28;9049;-63
2023/07/26 12:53:15;;;;;;;;;;;;;;;28.73;41.08;94306.41;5005833;28;7279;-63
2023/07/26 12:55:41;;;;;;;;;;;;;;;28.74;41.00;94299.59;5023402;28;7972;-63
2023/07/26 12:58:10;;;;;;;;;;;;;;;28.78;41.16;94309.06;5017617;28;7259;-63
2023/07/26 13:01:14;;;;;;;;;;;;;;;28.82;40.74;94303.94;5010859;28;6962;-63
2023/07/26 13:03:41;;;;;;;;;;;;;;;28.82;41.20;94300.41;4994119;28;7314;-63
2023/07/26 13:06:15;;;;;;;;;;;;;;;28.84;40.81;94300.66;5036852;28;7246;-63
2023/07/26 13:08:44;;;;;;;;;;;;;;;28.82;41.15;94294.88;5052250;28;7072;-63
2023/07/26 13:11:15;;;;;;;;;;;;;;;28.80;40.76;94289.88;5053407;28;6975;-63
2023/07/26 13:13:57;;;;;;;;;;;;;;;28.79;40.67;94288.41;5048963;28;9355;-63
2023/07/26 13:16:23;;;;;;;;;;;;;;;28.81;40.96;94285.09;5050596;28;9136;-63
2023/07/26 13:18:56;;;;;;;;;;;;;;;28.82;40.49;94281.78;5032252;28;9337;-63
2023/07/26 13:21:33;;;;;;;;;;;;;;;28.79;40.56;94274.56;5048497;28;7303;-63
2023/07/26 13:23:59;;;;;;;;;;;;;;;28.78;40.86;94286.16;5046610;28;6977;-64
2023/07/26 13:26:30;;;;;;;;;;;;;;;28.80;40.77;94289.88;5051890;28;9354;-61
2023/07/26 13:28:56;;;;;;;;;;;;;;;28.81;41.05;94290.63;5034232;28;9100;-61
2023/07/26 13:31:22;;;;;;;;;;;;;;;28.78;41.05;94286.91;5066425;28;8488;-61
2023/07/26 13:33:48;;;;;;;;;;;;;;;28.83;40.76;94294.38;5034021;28;9399;-60
2023/07/26 13:36:21;;;;;;;;;;;;;;;28.84;40.51;94301.38;5036571;28;7538;-61
2023/07/26 13:38:47;;;;;;;;;;;;;;;28.83;40.56;94294.38;5049545;28;7307;-61
2023/07/26 13:41:13;;;;;;;;;;;;;;;28.85;41.26;94302.88;5036873;28;7673;-61
2023/07/26 13:43:39;;;;;;;;;;;;;;;28.87;40.73;94294.78;5051060;28;7242;-61
2023/07/26 13:46:05;;;;;;;;;;;;;;;28.88;41.32;94296.25;5041134;28;7021;-61
2023/07/26 13:48:30;;;;;;;;;;;;;;;28.84;41.62;94289.56;5031944;28;9062;-61
2023/07/26 13:50:56;;;;;;;;;;;;;;;28.83;41.68;94299.16;5051602;28;7330;-60
2023/07/26 13:53:26;;;;;;;;;;;;;;;28.81;41.21;94298.94;5050620;28;7276;-61